createdAt,value
2019-01-02T00:00:07.375Z,101853.94
2019-01-02T00:01:09.813Z,101858.59
2019-01-02T00:02:11.908Z,101868.45
2019-01-02T00:03:13.934Z,101861.56
2019-01-02T00:04:16.601Z,101862.87
2019-01-02T00:05:18.639Z,101864.55
2019-01-02T00:06:20.677Z,101869.00
2019-01-02T00:07:23.205Z,101865.09
2019-01-02T00:08:25.141Z,101873.65
2019-01-02T00:09:27.179Z,101883.51
2019-01-02T00:10:31.084Z,101872.72
2019-01-02T00:11:33.149Z,101881.45
2019-01-02T00:12:35.179Z,101872.34
2019-01-02T00:13:37.206Z,101878.86
2019-01-02T00:14:42.225Z,101875.70
2019-01-02T00:15:44.546Z,101880.91
2019-01-02T00:16:46.608Z,101893.17
2019-01-02T00:17:48.627Z,101885.19
2019-01-02T00:18:50.859Z,101886.48
2019-01-02T00:19:52.970Z,101887.04
2019-01-02T00:20:55.014Z,101887.41
2019-01-02T00:21:57.314Z,101888.71
2019-01-02T00:22:59.362Z,101893.17
2019-01-02T00:24:02.085Z,101890.94
2019-01-02T00:25:04.486Z,101891.31
2019-01-02T00:26:08.417Z,101891.31
2019-01-02T00:27:10.126Z,101893.54
2019-01-02T00:28:12.535Z,101897.27
2019-01-02T00:29:14.572Z,101903.02
2019-01-02T00:30:16.655Z,101898.56
2019-01-02T00:31:18.870Z,101903.02
2019-01-02T00:32:20.915Z,101911.58
2019-01-02T00:33:22.957Z,101903.02
2019-01-02T00:34:24.978Z,101907.30
2019-01-02T00:35:27.049Z,101907.67
2019-01-02T00:36:29.378Z,101918.25
2019-01-02T00:37:31.417Z,101914.34
2019-01-02T00:38:33.439Z,101920.31
2019-01-02T00:39:37.343Z,101914.19
2019-01-02T00:40:39.396Z,101915.86
2019-01-02T00:41:41.433Z,101925.89
2019-01-02T00:42:43.701Z,101929.80
2019-01-02T00:43:45.714Z,101926.64
2019-01-02T00:44:47.825Z,101931.09
2019-01-02T00:45:49.894Z,101927.35
2019-01-02T00:46:51.932Z,101929.24
2019-01-02T00:47:54.271Z,101940.03
2019-01-02T00:48:56.339Z,101940.58
2019-01-02T00:49:58.375Z,101945.23
2019-01-02T00:51:00.746Z,101941.33
2019-01-02T00:52:04.566Z,101940.03
2019-01-02T00:53:06.583Z,101944.27
2019-01-02T00:54:08.990Z,101942.97
2019-01-02T00:55:11.029Z,101947.25
2019-01-02T00:56:16.244Z,101945.56
2019-01-02T00:57:18.224Z,101963.45
2019-01-02T00:58:20.246Z,101966.23
2019-01-02T00:59:22.571Z,101952.29
2019-01-02T01:00:24.576Z,101968.83
2019-01-02T01:01:26.693Z,101967.34
2019-01-02T01:02:29.117Z,101962.48
2019-01-02T01:03:31.152Z,101975.16
2019-01-02T01:04:33.470Z,101971.81
2019-01-02T01:05:35.415Z,101972.89
2019-01-02T01:06:37.493Z,101979.06
2019-01-02T01:07:39.960Z,101980.36
2019-01-02T01:08:41.975Z,101975.49
2019-01-02T01:09:44.023Z,101966.77
2019-01-02T01:10:46.069Z,101979.40
2019-01-02T01:11:48.121Z,101980.70
2019-01-02T01:12:50.764Z,101981.45
2019-01-02T01:13:52.808Z,101987.58
2019-01-02T01:14:54.817Z,101992.25
2019-01-02T01:15:57.224Z,101992.25
2019-01-02T01:16:59.285Z,101993.38
2019-01-02T01:18:01.369Z,101995.23
2019-01-02T01:19:03.582Z,101998.58
2019-01-02T01:20:05.623Z,102001.52
2019-01-02T01:21:07.986Z,102004.49
2019-01-02T01:22:10.050Z,102004.87
2019-01-02T01:23:12.079Z,102005.80
2019-01-02T01:24:17.413Z,102015.83
2019-01-02T01:25:19.443Z,102004.87
2019-01-02T01:26:21.486Z,102004.87
2019-01-02T01:27:23.569Z,102009.14
2019-01-02T01:28:25.625Z,102009.33
2019-01-02T01:29:27.612Z,102010.07
2019-01-02T01:30:29.655Z,102017.88
2019-01-02T01:31:31.916Z,102013.59
2019-01-02T01:32:33.947Z,102019.55
2019-01-02T01:33:35.965Z,102024.76
2019-01-02T01:34:38.299Z,102020.85
2019-01-02T01:35:40.427Z,102025.69
2019-01-02T01:36:42.453Z,102023.83
2019-01-02T01:37:44.801Z,102022.16
2019-01-02T01:38:46.831Z,102019.92
2019-01-02T01:39:48.802Z,102026.43
2019-01-02T01:40:51.119Z,102032.01
2019-01-02T01:41:53.079Z,102042.05
2019-01-02T01:42:55.255Z,102042.59
2019-01-02T01:43:57.649Z,102043.52
2019-01-02T01:44:59.685Z,102040.37
2019-01-02T01:46:01.729Z,102047.43
2019-01-02T01:47:04.271Z,102042.23
2019-01-02T01:48:06.369Z,102066.58
2019-01-02T01:49:08.447Z,102057.47
2019-01-02T01:50:11.335Z,102064.72
2019-01-02T01:51:13.882Z,102069.55
2019-01-02T01:52:15.942Z,102071.97
2019-01-02T01:53:18.399Z,102067.69
2019-01-02T01:54:20.422Z,102069.55
2019-01-02T01:55:22.380Z,102067.69
2019-01-02T01:56:24.853Z,102079.41
2019-01-02T01:57:26.896Z,102083.31
2019-01-02T01:58:28.999Z,102075.13
2019-01-02T01:59:31.316Z,102074.94
2019-01-02T02:00:33.615Z,102073.64
2019-01-02T02:01:36.921Z,102087.21
2019-01-02T02:02:39.420Z,102080.33
2019-01-02T02:03:41.414Z,102082.38
2019-01-02T02:04:43.441Z,102087.58
2019-01-02T02:05:45.690Z,102084.98
2019-01-02T02:06:47.715Z,102088.88
2019-01-02T02:07:49.759Z,102090.55
2019-01-02T02:08:51.917Z,102091.86
2019-01-02T02:09:53.940Z,102083.87
2019-01-02T02:10:56.240Z,102095.77
2019-01-02T02:11:58.277Z,102108.40
2019-01-02T02:13:00.312Z,102103.20
2019-01-02T02:14:02.284Z,102099.66
2019-01-02T02:15:04.318Z,102102.27
2019-01-02T02:16:06.677Z,102103.57
2019-01-02T02:17:08.722Z,102104.87
2019-01-02T02:18:10.761Z,102099.30
2019-01-02T02:19:12.943Z,102107.09
2019-01-02T02:20:14.971Z,102104.13
2019-01-02T02:21:17.012Z,102105.24
2019-01-02T02:22:19.338Z,102117.33
2019-01-02T02:23:21.372Z,102118.25
2019-01-02T02:24:23.432Z,102119.00
2019-01-02T02:25:25.754Z,102116.58
2019-01-02T02:26:27.708Z,102124.38
2019-01-02T02:27:29.746Z,102120.86
2019-01-02T02:28:32.068Z,102125.69
2019-01-02T02:29:34.115Z,102121.97
2019-01-02T02:30:36.139Z,102131.82
2019-01-02T02:31:38.162Z,102128.84
2019-01-02T02:32:43.032Z,102138.33
2019-01-02T02:33:45.371Z,102139.25
2019-01-02T02:34:47.740Z,102138.70
2019-01-02T02:35:49.758Z,102137.02
2019-01-02T02:36:52.092Z,102137.40
2019-01-02T02:37:54.524Z,102139.07
2019-01-02T02:38:56.545Z,102149.11
2019-01-02T02:39:58.889Z,102144.27
2019-01-02T02:41:01.270Z,102142.79
2019-01-02T02:42:03.292Z,102143.91
2019-01-02T02:43:05.634Z,102137.77
2019-01-02T02:44:07.676Z,102141.11
2019-01-02T02:45:10.152Z,102142.97
2019-01-02T02:46:12.592Z,102148.18
2019-01-02T02:47:14.616Z,102149.85
2019-01-02T02:48:16.622Z,102148.92
2019-01-02T02:49:21.144Z,102154.12
2019-01-02T02:50:23.193Z,102149.30
2019-01-02T02:51:25.422Z,102157.47
2019-01-02T02:52:27.754Z,102152.64
2019-01-02T02:53:29.780Z,102156.17
2019-01-02T02:54:32.201Z,102151.34
2019-01-02T02:55:34.284Z,102165.47
2019-01-02T02:56:36.520Z,102163.61
2019-01-02T02:57:38.864Z,102158.95
2019-01-02T02:58:40.886Z,102161.75
2019-01-02T02:59:43.242Z,102163.98
2019-01-02T03:00:45.288Z,102160.45
2019-01-02T03:01:47.712Z,102165.28
2019-01-02T03:02:50.034Z,102163.05
2019-01-02T03:03:51.998Z,102160.08
2019-01-02T03:04:54.351Z,102168.81
2019-01-02T03:05:56.830Z,102167.14
2019-01-02T03:06:58.859Z,102161.75
2019-01-02T03:08:01.090Z,102160.45
2019-01-02T03:09:04.020Z,102166.20
2019-01-02T03:10:05.964Z,102165.28
2019-01-02T03:11:08.317Z,102169.19
2019-01-02T03:12:10.569Z,102174.76
2019-01-02T03:13:13.940Z,102174.02
2019-01-02T03:14:17.951Z,102173.83
2019-01-02T03:15:19.896Z,102169.19
2019-01-02T03:16:21.978Z,102172.16
2019-01-02T03:17:25.674Z,102166.20
2019-01-02T03:18:27.992Z,102177.36
2019-01-02T03:19:33.642Z,102172.53
2019-01-02T03:20:35.818Z,102172.16
2019-01-02T03:21:37.895Z,102183.49
2019-01-02T03:22:40.210Z,102173.46
2019-01-02T03:23:42.643Z,102186.84
2019-01-02T03:24:44.695Z,102200.41
2019-01-02T03:25:46.910Z,102196.88
2019-01-02T03:26:49.532Z,102185.91
2019-01-02T03:27:51.536Z,102187.77
2019-01-02T03:28:54.067Z,102201.52
2019-01-02T03:29:56.373Z,102194.09
2019-01-02T03:30:58.695Z,102202.83
2019-01-02T03:32:01.093Z,102203.20
2019-01-02T03:33:03.428Z,102193.72
2019-01-02T03:34:05.452Z,102190.19
2019-01-02T03:35:07.420Z,102203.94
2019-01-02T03:36:09.443Z,102214.91
2019-01-02T03:37:11.447Z,102211.00
2019-01-02T03:38:13.433Z,102218.44
2019-01-02T03:39:15.395Z,102223.27
2019-01-02T03:40:17.330Z,102220.11
2019-01-02T03:41:19.289Z,102228.29
2019-01-02T03:42:21.279Z,102221.41
2019-01-02T03:43:23.230Z,102225.12
2019-01-02T03:44:25.208Z,102228.84
2019-01-02T03:45:27.282Z,102231.82
2019-01-02T03:46:29.258Z,102246.13
2019-01-02T03:47:31.343Z,102240.55
2019-01-02T03:48:33.389Z,102235.35
2019-01-02T03:49:35.348Z,102229.59
2019-01-02T03:50:37.401Z,102228.84
2019-01-02T03:51:39.447Z,102233.49
2019-01-02T03:52:41.496Z,102235.16
2019-01-02T03:53:43.450Z,102238.70
2019-01-02T03:54:45.409Z,102239.06
2019-01-02T03:55:47.416Z,102240.37
2019-01-02T03:56:49.449Z,102247.80
2019-01-02T03:57:51.505Z,102253.01
2019-01-02T03:58:53.452Z,102253.94
2019-01-02T03:59:55.463Z,102262.48
2019-01-02T04:00:57.417Z,102264.34
2019-01-02T04:01:59.451Z,102261.75
2019-01-02T04:03:01.535Z,102269.55
2019-01-02T04:04:03.481Z,102262.12
2019-01-02T04:05:05.419Z,102272.52
2019-01-02T04:06:07.369Z,102271.97
2019-01-02T04:07:09.368Z,102277.17
2019-01-02T04:08:12.658Z,102288.32
2019-01-02T04:09:14.686Z,102282.00
2019-01-02T04:10:16.961Z,102284.60
2019-01-02T04:11:18.977Z,102277.54
2019-01-02T04:12:20.926Z,102286.65
2019-01-02T04:13:23.285Z,102284.97
2019-01-02T04:14:25.330Z,102292.78
2019-01-02T04:15:28.061Z,102291.85
2019-01-02T04:16:30.013Z,102289.25
2019-01-02T04:17:31.987Z,102295.38
2019-01-02T04:18:34.029Z,102289.25
2019-01-02T04:19:36.012Z,102295.38
2019-01-02T04:20:38.051Z,102302.26
2019-01-02T04:21:40.005Z,102302.62
2019-01-02T04:22:41.970Z,102307.83
2019-01-02T04:23:44.024Z,102311.00
2019-01-02T04:24:45.997Z,102309.13
2019-01-02T04:25:48.009Z,102315.64
2019-01-02T04:26:49.969Z,102313.04
2019-01-02T04:27:51.963Z,102318.80
2019-01-02T04:28:54.231Z,102324.38
2019-01-02T04:29:56.261Z,102321.77
2019-01-02T04:30:58.215Z,102322.14
2019-01-02T04:32:00.231Z,102321.77
2019-01-02T04:33:02.188Z,102329.58
2019-01-02T04:34:04.240Z,102329.02
2019-01-02T04:35:06.196Z,102329.39
2019-01-02T04:36:08.210Z,102329.77
2019-01-02T04:37:13.606Z,102334.23
2019-01-02T04:38:15.625Z,102330.69
2019-01-02T04:39:17.604Z,102343.33
2019-01-02T04:40:22.882Z,102342.03
2019-01-02T04:41:24.834Z,102342.59
2019-01-02T04:42:26.858Z,102343.70
2019-01-02T04:43:28.808Z,102345.00
2019-01-02T04:44:30.793Z,102345.00
2019-01-02T04:45:32.754Z,102352.07
2019-01-02T04:46:34.759Z,102349.84
2019-01-02T04:47:36.700Z,102346.30
2019-01-02T04:48:38.717Z,102352.81
2019-01-02T04:49:40.722Z,102349.84
2019-01-02T04:50:42.679Z,102350.58
2019-01-02T04:51:44.702Z,102364.15
2019-01-02T04:52:46.654Z,102360.98
2019-01-02T04:53:48.590Z,102358.75
2019-01-02T04:54:50.554Z,102357.08
2019-01-02T04:55:52.522Z,102358.38
2019-01-02T04:56:54.466Z,102364.33
2019-01-02T04:57:56.415Z,102353.18
2019-01-02T04:58:58.371Z,102368.23
2019-01-02T05:00:00.349Z,102369.72
2019-01-02T05:01:02.298Z,102374.93
2019-01-02T05:02:07.878Z,102377.90
2019-01-02T05:03:09.899Z,102382.73
2019-01-02T05:04:11.853Z,102384.41
2019-01-02T05:05:13.847Z,102383.47
2019-01-02T05:06:15.858Z,102378.27
2019-01-02T05:07:17.794Z,102383.11
2019-01-02T05:08:19.761Z,102388.67
2019-01-02T05:09:21.714Z,102389.98
2019-01-02T05:10:23.756Z,102389.98
2019-01-02T05:11:25.701Z,102389.05
2019-01-02T05:12:27.635Z,102393.88
2019-01-02T05:13:29.603Z,102394.59
2019-01-02T05:14:31.559Z,102400.76
2019-01-02T05:15:33.612Z,102399.45
2019-01-02T05:16:35.550Z,102408.56
2019-01-02T05:17:37.785Z,102409.50
2019-01-02T05:18:39.820Z,102414.33
2019-01-02T05:19:41.858Z,102409.13
2019-01-02T05:20:43.830Z,102403.36
2019-01-02T05:21:45.786Z,102418.23
2019-01-02T05:22:47.725Z,102419.53
2019-01-02T05:23:49.747Z,102418.97
2019-01-02T05:24:51.768Z,102422.87
2019-01-02T05:25:53.832Z,102421.20
2019-01-02T05:26:55.778Z,102437.19
2019-01-02T05:27:57.733Z,102435.52
2019-01-02T05:28:59.682Z,102437.19
2019-01-02T05:30:01.712Z,102435.88
2019-01-02T05:31:03.791Z,102441.28
2019-01-02T05:32:05.810Z,102445.18
2019-01-02T05:33:07.755Z,102445.55
2019-01-02T05:34:09.791Z,102443.69
2019-01-02T05:35:11.727Z,102448.72
2019-01-02T05:36:13.735Z,102446.86
2019-01-02T05:37:15.840Z,102448.52
2019-01-02T05:38:17.775Z,102452.98
2019-01-02T05:39:19.724Z,102452.62
2019-01-02T05:40:21.686Z,102452.42
2019-01-02T05:41:24.016Z,102460.80
2019-01-02T05:42:26.016Z,102451.31
2019-01-02T05:43:27.968Z,102463.96
2019-01-02T05:44:31.603Z,102462.09
2019-01-02T05:45:33.652Z,102462.09
2019-01-02T05:46:35.621Z,102462.09
2019-01-02T05:47:37.694Z,102473.06
2019-01-02T05:48:43.843Z,102470.83
2019-01-02T05:49:43.341Z,102469.16
2019-01-02T05:50:46.581Z,102478.64
2019-01-02T05:51:48.533Z,102468.23
2019-01-02T05:52:50.481Z,102483.84
2019-01-02T05:53:52.425Z,102480.50
2019-01-02T05:54:54.387Z,102481.24
2019-01-02T05:55:56.399Z,102489.42
2019-01-02T05:56:58.341Z,102490.34
2019-01-02T05:58:00.291Z,102490.34
2019-01-02T05:59:02.236Z,102490.34
2019-01-02T06:00:07.214Z,102494.63
2019-01-02T06:01:09.166Z,102498.72
2019-01-02T06:02:11.192Z,102499.83
2019-01-02T06:03:13.209Z,102510.80
2019-01-02T06:04:15.153Z,102503.53
2019-01-02T06:05:17.106Z,102499.83
2019-01-02T06:06:19.049Z,102508.94
2019-01-02T06:07:21.007Z,102508.00
2019-01-02T06:08:22.959Z,102506.70
2019-01-02T06:09:26.333Z,102507.44
2019-01-02T06:10:28.491Z,102507.44
2019-01-02T06:11:30.437Z,102511.67
2019-01-02T06:12:32.397Z,102520.78
2019-01-02T06:13:34.355Z,102525.66
2019-01-02T06:14:36.313Z,102528.08
2019-01-02T06:15:38.255Z,102526.22
2019-01-02T06:16:40.193Z,102532.72
2019-01-02T06:17:42.137Z,102531.05
2019-01-02T06:18:44.074Z,102540.72
2019-01-02T06:19:46.047Z,102531.98
2019-01-02T06:20:47.979Z,102538.86
2019-01-02T06:21:49.947Z,102539.23
2019-01-02T06:22:51.911Z,102547.23
2019-01-02T06:23:53.934Z,102542.39
2019-01-02T06:24:56.695Z,102543.70
2019-01-02T06:25:58.652Z,102550.20
2019-01-02T06:27:00.595Z,102553.17
2019-01-02T06:28:02.552Z,102556.91
2019-01-02T06:29:04.506Z,102563.41
2019-01-02T06:30:09.324Z,102556.53
2019-01-02T06:31:11.354Z,102567.50
2019-01-02T06:32:13.928Z,102564.34
2019-01-02T06:33:15.884Z,102571.78
2019-01-02T06:34:17.898Z,102574.38
2019-01-02T06:35:19.846Z,102571.04
2019-01-02T06:36:21.866Z,102572.70
2019-01-02T06:37:23.831Z,102575.51
2019-01-02T06:38:29.616Z,102587.59
2019-01-02T06:39:31.630Z,102583.69
2019-01-02T06:40:33.576Z,102579.05
2019-01-02T06:41:35.520Z,102587.22
2019-01-02T06:42:37.548Z,102588.15
2019-01-02T06:43:42.292Z,102597.26
2019-01-02T06:44:44.309Z,102598.56
2019-01-02T06:45:46.314Z,102600.05
2019-01-02T06:46:48.278Z,102597.45
2019-01-02T06:47:50.229Z,102597.82
2019-01-02T06:48:52.176Z,102604.33
2019-01-02T06:49:54.197Z,102611.77
2019-01-02T06:50:56.226Z,102601.73
2019-01-02T06:51:58.239Z,102611.20
2019-01-02T06:53:00.215Z,102609.73
2019-01-02T06:54:02.231Z,102611.77
2019-01-02T06:55:04.171Z,102608.80
2019-01-02T06:56:06.111Z,102609.16
2019-01-02T06:57:08.062Z,102611.40
2019-01-02T06:58:10.002Z,102611.20
2019-01-02T06:59:11.942Z,102612.70
2019-01-02T07:00:13.896Z,102614.94
2019-01-02T07:01:15.839Z,102620.50
2019-01-02T07:02:17.858Z,102620.50
2019-01-02T07:03:19.888Z,102620.50
2019-01-02T07:04:21.837Z,102624.41
2019-01-02T07:05:23.771Z,102625.71
2019-01-02T07:06:25.705Z,102633.89
2019-01-02T07:07:31.190Z,102633.89
2019-01-02T07:08:31.362Z,102638.36
2019-01-02T07:09:33.328Z,102644.86
2019-01-02T07:10:35.269Z,102638.72
2019-01-02T07:11:37.217Z,102650.06
2019-01-02T07:12:39.175Z,102650.80
2019-01-02T07:13:41.115Z,102650.06
2019-01-02T07:14:43.065Z,102657.51
2019-01-02T07:15:45.082Z,102664.02
2019-01-02T07:16:47.033Z,102661.41
2019-01-02T07:17:49.056Z,102663.64
2019-01-02T07:18:51.359Z,102664.95
2019-01-02T07:19:53.291Z,102666.78
2019-01-02T07:20:55.230Z,102667.72
2019-01-02T07:21:57.173Z,102674.59
2019-01-02T07:22:59.131Z,102677.77
2019-01-02T07:24:01.153Z,102677.20
2019-01-02T07:25:03.099Z,102681.47
2019-01-02T07:26:05.111Z,102684.44
2019-01-02T07:27:07.054Z,102681.84
2019-01-02T07:28:09.251Z,102689.64
2019-01-02T07:29:11.223Z,102691.14
2019-01-02T07:30:13.180Z,102685.00
2019-01-02T07:31:15.202Z,102690.21
2019-01-02T07:32:17.157Z,102697.45
2019-01-02T07:33:19.213Z,102706.36
2019-01-02T07:34:21.245Z,102708.23
2019-01-02T07:35:23.186Z,102708.23
2019-01-02T07:36:25.145Z,102710.27
2019-01-02T07:37:27.172Z,102723.11
2019-01-02T07:38:29.252Z,102719.57
2019-01-02T07:39:31.200Z,102722.38
2019-01-02T07:40:33.153Z,102721.23
2019-01-02T07:41:35.123Z,102727.38
2019-01-02T07:42:37.075Z,102725.14
2019-01-02T07:43:39.137Z,102726.81
2019-01-02T07:44:41.305Z,102736.48
2019-01-02T07:45:44.730Z,102733.32
2019-01-02T07:46:46.952Z,102735.55
2019-01-02T07:47:48.896Z,102740.39
2019-01-02T07:48:53.773Z,102748.57
2019-01-02T07:49:55.714Z,102744.47
2019-01-02T07:51:00.338Z,102748.94
2019-01-02T07:52:01.329Z,102750.61
2019-01-02T07:53:03.274Z,102747.27
2019-01-02T07:54:05.254Z,102757.67
2019-01-02T07:55:07.193Z,102750.61
2019-01-02T07:56:09.150Z,102743.53
2019-01-02T07:57:11.090Z,102748.37
2019-01-02T07:58:13.039Z,102755.24
2019-01-02T07:59:15.019Z,102750.77
2019-01-02T08:00:17.033Z,102751.34
2019-01-02T08:01:18.977Z,102754.88
2019-01-02T08:02:20.937Z,102754.88
2019-01-02T08:03:22.944Z,102757.11
2019-01-02T08:04:24.930Z,102754.51
2019-01-02T08:05:26.975Z,102756.38
2019-01-02T08:06:28.905Z,102754.14
2019-01-02T08:07:30.833Z,102766.59
2019-01-02T08:08:32.782Z,102761.38
2019-01-02T08:09:34.754Z,102766.59
2019-01-02T08:10:36.774Z,102762.11
2019-01-02T08:11:41.571Z,102764.72
2019-01-02T08:12:43.547Z,102770.86
2019-01-02T08:13:45.563Z,102765.09
2019-01-02T08:14:47.601Z,102776.42
2019-01-02T08:15:49.611Z,102775.13
2019-01-02T08:16:51.613Z,102784.60
2019-01-02T08:17:53.554Z,102777.16
2019-01-02T08:18:55.489Z,102783.67
2019-01-02T08:19:57.721Z,102791.84
2019-01-02T08:20:59.737Z,102795.38
2019-01-02T08:22:01.748Z,102795.38
2019-01-02T08:23:05.483Z,102801.52
2019-01-02T08:24:07.483Z,102795.02
2019-01-02T08:25:09.471Z,102801.72
2019-01-02T08:26:11.397Z,102807.49
2019-01-02T08:27:13.327Z,102809.52
2019-01-02T08:28:15.285Z,102800.78
2019-01-02T08:29:17.220Z,102801.16
2019-01-02T08:30:19.199Z,102808.59
2019-01-02T08:31:21.145Z,102807.49
2019-01-02T08:32:23.078Z,102814.20
2019-01-02T08:33:25.015Z,102805.09
2019-01-02T08:34:26.980Z,102817.94
2019-01-02T08:35:28.973Z,102822.77
2019-01-02T08:36:30.905Z,102816.47
2019-01-02T08:37:32.850Z,102819.51
2019-01-02T08:38:34.780Z,102824.34
2019-01-02T08:39:36.718Z,102830.13
2019-01-02T08:40:38.702Z,102828.45
2019-01-02T08:41:40.711Z,102828.48
2019-01-02T08:42:42.650Z,102824.58
2019-01-02T08:43:44.595Z,102836.86
2019-01-02T08:44:47.334Z,102832.22
2019-01-02T08:45:49.316Z,102836.13
2019-01-02T08:46:51.262Z,102832.22
2019-01-02T08:47:53.227Z,102835.59
2019-01-02T08:48:55.217Z,102844.38
2019-01-02T08:49:59.892Z,102847.55
2019-01-02T08:51:01.845Z,102851.82
2019-01-02T08:52:03.805Z,102845.31
2019-01-02T08:53:05.831Z,102850.52
2019-01-02T08:54:07.787Z,102854.79
2019-01-02T08:55:09.720Z,102857.39
2019-01-02T08:56:11.682Z,102856.42
2019-01-02T08:57:13.625Z,102863.46
2019-01-02T08:58:15.572Z,102870.34
2019-01-02T08:59:17.602Z,102863.27
2019-01-02T09:00:19.627Z,102864.93
2019-01-02T09:01:21.573Z,102868.27
2019-01-02T09:02:23.516Z,102871.23
2019-01-02T09:03:25.449Z,102870.30
2019-01-02T09:04:27.414Z,102870.67
2019-01-02T09:05:29.394Z,102864.89
2019-01-02T09:06:31.362Z,102873.64
2019-01-02T09:07:33.312Z,102876.61
2019-01-02T09:08:35.330Z,102870.83
2019-01-02T09:09:37.353Z,102874.53
2019-01-02T09:10:39.839Z,102877.87
2019-01-02T09:11:41.870Z,102875.63
2019-01-02T09:12:43.803Z,102880.61
2019-01-02T09:13:46.309Z,102874.26
2019-01-02T09:14:48.323Z,102882.64
2019-01-02T09:15:50.337Z,102880.77
2019-01-02T09:16:52.319Z,102875.36
2019-01-02T09:17:54.260Z,102885.20
2019-01-02T09:18:56.198Z,102879.42
2019-01-02T09:19:58.161Z,102891.88
2019-01-02T09:21:00.096Z,102889.63
2019-01-02T09:22:02.144Z,102898.54
2019-01-02T09:23:04.101Z,102898.34
2019-01-02T09:24:06.052Z,102891.27
2019-01-02T09:25:08.064Z,102905.91
2019-01-02T09:26:10.009Z,102906.88
2019-01-02T09:27:12.057Z,102909.97
2019-01-02T09:28:13.983Z,102914.45
2019-01-02T09:29:15.927Z,102909.03
2019-01-02T09:30:17.861Z,102912.00
2019-01-02T09:31:19.794Z,102903.79
2019-01-02T09:32:21.767Z,102911.96
2019-01-02T09:33:23.984Z,102906.39
2019-01-02T09:34:25.928Z,102911.02
2019-01-02T09:35:27.937Z,102912.33
2019-01-02T09:36:29.958Z,102912.69
2019-01-02T09:37:31.993Z,102923.83
2019-01-02T09:38:33.934Z,102920.30
2019-01-02T09:39:35.882Z,102918.05
2019-01-02T09:40:37.954Z,102918.05
2019-01-02T09:41:40.021Z,102921.39
2019-01-02T09:42:41.993Z,102933.47
2019-01-02T09:43:43.924Z,102931.23
2019-01-02T09:44:45.856Z,102929.32
2019-01-02T09:45:51.133Z,102934.89
2019-01-02T09:46:53.915Z,102934.32
2019-01-02T09:47:56.091Z,102932.66
2019-01-02T09:48:58.105Z,102929.11
2019-01-02T09:50:00.183Z,102939.28
2019-01-02T09:51:02.172Z,102935.98
2019-01-02T09:52:04.122Z,102933.75
2019-01-02T09:53:06.082Z,102936.67
2019-01-02T09:54:08.033Z,102936.35
2019-01-02T09:55:10.040Z,102942.61
2019-01-02T09:56:11.982Z,102927.37
2019-01-02T09:57:13.926Z,102932.20
2019-01-02T09:58:15.900Z,102934.81
2019-01-02T09:59:17.874Z,102944.84
2019-01-02T10:00:19.895Z,102929.84
2019-01-02T10:01:23.783Z,102936.19
2019-01-02T10:02:25.514Z,102935.91
2019-01-02T10:03:27.546Z,102947.86
2019-01-02T10:04:29.501Z,102937.13
2019-01-02T10:05:31.527Z,102938.14
2019-01-02T10:06:33.458Z,102934.28
2019-01-02T10:07:35.406Z,102940.10
2019-01-02T10:08:37.412Z,102949.49
2019-01-02T10:09:39.373Z,102949.17
2019-01-02T10:10:41.384Z,102951.81
2019-01-02T10:11:43.353Z,102949.85
2019-01-02T10:12:45.357Z,102948.95
2019-01-02T10:13:47.347Z,102935.77
2019-01-02T10:14:49.277Z,102952.17
2019-01-02T10:15:51.235Z,102943.98
2019-01-02T10:16:53.175Z,102953.91
2019-01-02T10:17:55.111Z,102953.95
2019-01-02T10:18:57.082Z,102947.07
2019-01-02T10:19:59.100Z,102952.28
2019-01-02T10:21:03.548Z,102949.47
2019-01-02T10:22:05.666Z,102952.64
2019-01-02T10:23:07.593Z,102952.48
2019-01-02T10:24:09.550Z,102949.67
2019-01-02T10:25:11.489Z,102949.67
2019-01-02T10:26:13.436Z,102959.16
2019-01-02T10:27:15.379Z,102955.61
2019-01-02T10:28:17.326Z,102955.41
2019-01-02T10:29:19.426Z,102956.34
2019-01-02T10:30:21.433Z,102958.95
2019-01-02T10:31:23.374Z,102949.84
2019-01-02T10:32:25.387Z,102958.02
2019-01-02T10:33:27.314Z,102949.63
2019-01-02T10:34:31.446Z,102949.44
2019-01-02T10:35:32.956Z,102951.44
2019-01-02T10:36:35.014Z,102954.03
2019-01-02T10:37:36.942Z,102956.08
2019-01-02T10:38:38.883Z,102954.20
2019-01-02T10:39:40.853Z,102968.16
2019-01-02T10:40:42.803Z,102954.20
2019-01-02T10:41:44.743Z,102964.05
2019-01-02T10:42:46.689Z,102969.05
2019-01-02T10:43:48.637Z,102965.87
2019-01-02T10:44:53.049Z,102967.55
2019-01-02T10:45:54.991Z,102968.65
2019-01-02T10:46:56.921Z,102963.80
2019-01-02T10:47:58.854Z,102975.52
2019-01-02T10:49:00.794Z,102968.08
2019-01-02T10:50:02.747Z,102965.84
2019-01-02T10:51:04.714Z,102975.32
2019-01-02T10:52:06.748Z,102968.61
2019-01-02T10:53:08.759Z,102966.73
2019-01-02T10:54:10.738Z,102969.67
2019-01-02T10:55:12.710Z,102973.24
2019-01-02T10:56:14.666Z,102970.03
2019-01-02T10:57:16.603Z,102974.88
2019-01-02T10:58:18.555Z,102976.91
2019-01-02T10:59:20.506Z,102977.64
2019-01-02T11:00:22.864Z,102989.72
2019-01-02T11:01:24.824Z,102976.50
2019-01-02T11:02:26.773Z,102985.61
2019-01-02T11:03:28.712Z,102981.70
2019-01-02T11:04:30.680Z,102993.42
2019-01-02T11:05:32.631Z,102994.88
2019-01-02T11:06:34.574Z,102992.48
2019-01-02T11:07:38.499Z,102996.39
2019-01-02T11:08:40.188Z,102995.45
2019-01-02T11:09:42.133Z,102998.42
2019-01-02T11:10:44.124Z,102999.73
2019-01-02T11:11:46.066Z,102998.42
2019-01-02T11:12:48.019Z,102992.64
2019-01-02T11:13:49.952Z,102998.79
2019-01-02T11:14:53.961Z,103004.36
2019-01-02T11:15:55.598Z,103000.82
2019-01-02T11:16:57.545Z,103003.79
2019-01-02T11:17:59.517Z,103009.00
2019-01-02T11:19:01.522Z,103008.06
2019-01-02T11:20:03.531Z,103007.70
2019-01-02T11:21:05.775Z,103013.27
2019-01-02T11:22:07.740Z,103003.59
2019-01-02T11:23:09.692Z,103013.06
2019-01-02T11:24:11.645Z,103009.16
2019-01-02T11:25:13.603Z,103005.98
2019-01-02T11:26:15.647Z,103013.79
2019-01-02T11:27:17.579Z,103007.66
2019-01-02T11:28:19.525Z,103020.09
2019-01-02T11:29:21.464Z,103013.91
2019-01-02T11:30:27.037Z,103020.42
2019-01-02T11:31:28.997Z,103023.03
2019-01-02T11:32:30.949Z,103012.61
2019-01-02T11:33:32.903Z,103028.23
2019-01-02T11:34:34.835Z,103020.42
2019-01-02T11:35:36.774Z,103021.73
2019-01-02T11:36:38.779Z,103019.28
2019-01-02T11:37:40.734Z,103020.58
2019-01-02T11:38:42.748Z,103025.42
2019-01-02T11:39:44.703Z,103019.28
2019-01-02T11:40:48.956Z,103026.00
2019-01-02T11:41:50.931Z,103033.23
2019-01-02T11:42:52.973Z,103022.62
2019-01-02T11:43:54.930Z,103017.41
2019-01-02T11:44:56.938Z,103035.27
2019-01-02T11:46:01.230Z,103030.42
2019-01-02T11:47:03.224Z,103029.13
2019-01-02T11:48:05.177Z,103030.42
2019-01-02T11:49:07.143Z,103030.79